sensor_id;sensor_type;location;lat;lon;timestamp;P1;durP1;ratioP1;P2;durP2;ratioP2
8293;SDS011;4185;41.506;24.938;2023-09-12T00:00:10;1.33;;;1.23;;
8293;SDS011;4185;41.506;24.938;2023-09-12T00:02:39;1.50;;;1.33;;
8293;SDS011;4185;41.506;24.938;2023-09-12T00:05:06;2.33;;;1.20;;
8293;SDS011;4185;41.506;24.938;2023-09-12T00:07:34;1.23;;;1.13;;
8293;SDS011;4185;41.506;24.938;2023-09-12T00:10:01;1.37;;;1.13;;
8293;SDS011;4185;41.506;24.938;2023-09-12T00:12:28;1.30;;;1.20;;
8293;SDS011;4185;41.506;24.938;2023-09-12T00:14:54;2.37;;;1.30;;
8293;SDS011;4185;41.506;24.938;2023-09-12T00:17:21;1.40;;;1.10;;
8293;SDS011;4185;41.506;24.938;2023-09-12T00:19:49;1.53;;;1.20;;
8293;SDS011;4185;41.506;24.938;2023-09-12T00:22:16;1.40;;;1.30;;
8293;SDS011;4185;41.506;24.938;2023-09-12T00:24:43;1.20;;;1.10;;
8293;SDS011;4185;41.506;24.938;2023-09-12T00:27:10;1.60;;;1.50;;
8293;SDS011;4185;41.506;24.938;2023-09-12T00:29:36;1.40;;;1.30;;
8293;SDS011;4185;41.506;24.938;2023-09-12T00:32:03;2.70;;;1.47;;
8293;SDS011;4185;41.506;24.938;2023-09-12T00:34:30;1.40;;;1.30;;
8293;SDS011;4185;41.506;24.938;2023-09-12T00:36:59;1.60;;;1.33;;
8293;SDS011;4185;41.506;24.938;2023-09-12T00:39:25;1.40;;;1.30;;
8293;SDS011;4185;41.506;24.938;2023-09-12T00:41:52;2.13;;;1.40;;
8293;SDS011;4185;41.506;24.938;2023-09-12T00:44:19;2.47;;;1.17;;
8293;SDS011;4185;41.506;24.938;2023-09-12T00:46:46;1.47;;;1.30;;
8293;SDS011;4185;41.506;24.938;2023-09-12T00:49:15;1.47;;;1.20;;
8293;SDS011;4185;41.506;24.938;2023-09-12T00:51:43;1.03;;;1.00;;
8293;SDS011;4185;41.506;24.938;2023-09-12T00:54:13;1.30;;;1.20;;
8293;SDS011;4185;41.506;24.938;2023-09-12T00:56:40;1.63;;;1.10;;
8293;SDS011;4185;41.506;24.938;2023-09-12T00:59:07;1.30;;;1.20;;
8293;SDS011;4185;41.506;24.938;2023-09-12T01:01:36;1.57;;;1.30;;
8293;SDS011;4185;41.506;24.938;2023-09-12T01:04:03;3.10;;;1.33;;
8293;SDS011;4185;41.506;24.938;2023-09-12T01:06:30;1.50;;;1.40;;
8293;SDS011;4185;41.506;24.938;2023-09-12T01:08:58;1.50;;;1.40;;
8293;SDS011;4185;41.506;24.938;2023-09-12T01:11:27;3.57;;;1.37;;
8293;SDS011;4185;41.506;24.938;2023-09-12T01:13:54;2.50;;;1.40;;
8293;SDS011;4185;41.506;24.938;2023-09-12T01:16:21;1.30;;;1.20;;
8293;SDS011;4185;41.506;24.938;2023-09-12T01:18:48;2.07;;;1.60;;
8293;SDS011;4185;41.506;24.938;2023-09-12T01:21:26;1.77;;;1.67;;
8293;SDS011;4185;41.506;24.938;2023-09-12T01:24:25;1.10;;;1.10;;
8293;SDS011;4185;41.506;24.938;2023-09-12T01:27:20;1.33;;;1.17;;
8293;SDS011;4185;41.506;24.938;2023-09-12T01:29:49;1.43;;;1.33;;
8293;SDS011;4185;41.506;24.938;2023-09-12T01:32:20;2.70;;;1.20;;
8293;SDS011;4185;41.506;24.938;2023-09-12T01:34:47;1.60;;;1.50;;
8293;SDS011;4185;41.506;24.938;2023-09-12T01:37:14;2.93;;;1.47;;
8293;SDS011;4185;41.506;24.938;2023-09-12T01:39:40;1.70;;;1.40;;
8293;SDS011;4185;41.506;24.938;2023-09-12T01:42:08;1.67;;;1.40;;
8293;SDS011;4185;41.506;24.938;2023-09-12T01:44:39;2.87;;;1.70;;
8293;SDS011;4185;41.506;24.938;2023-09-12T01:47:07;2.60;;;1.37;;
8293;SDS011;4185;41.506;24.938;2023-09-12T01:49:36;1.20;;;1.10;;
8293;SDS011;4185;41.506;24.938;2023-09-12T01:52:05;1.80;;;1.57;;
8293;SDS011;4185;41.506;24.938;2023-09-12T01:54:33;2.97;;;1.50;;
8293;SDS011;4185;41.506;24.938;2023-09-12T01:57:01;1.67;;;1.33;;
8293;SDS011;4185;41.506;24.938;2023-09-12T01:59:28;1.97;;;1.67;;
8293;SDS011;4185;41.506;24.938;2023-09-12T02:01:57;1.97;;;1.60;;
8293;SDS011;4185;41.506;24.938;2023-09-12T02:04:24;2.53;;;1.50;;
8293;SDS011;4185;41.506;24.938;2023-09-12T02:06:51;2.20;;;1.60;;
8293;SDS011;4185;41.506;24.938;2023-09-12T02:09:17;2.07;;;1.73;;
8293;SDS011;4185;41.506;24.938;2023-09-12T02:11:44;1.50;;;1.30;;
8293;SDS011;4185;41.506;24.938;2023-09-12T02:14:12;2.37;;;1.70;;
8293;SDS011;4185;41.506;24.938;2023-09-12T02:16:39;1.43;;;1.33;;
8293;SDS011;4185;41.506;24.938;2023-09-12T02:19:07;1.90;;;1.80;;
8293;SDS011;4185;41.506;24.938;2023-09-12T02:21:34;1.53;;;1.37;;
8293;SDS011;4185;41.506;24.938;2023-09-12T02:24:01;1.30;;;1.20;;
8293;SDS011;4185;41.506;24.938;2023-09-12T02:26:28;1.50;;;1.40;;
8293;SDS011;4185;41.506;24.938;2023-09-12T02:28:55;1.57;;;1.47;;
8293;SDS011;4185;41.506;24.938;2023-09-12T02:31:21;2.20;;;1.50;;
8293;SDS011;4185;41.506;24.938;2023-09-12T02:33:48;1.43;;;1.33;;
8293;SDS011;4185;41.506;24.938;2023-09-12T02:36:17;4.80;;;1.63;;
8293;SDS011;4185;41.506;24.938;2023-09-12T02:38:43;1.50;;;1.40;;
8293;SDS011;4185;41.506;24.938;2023-09-12T02:41:10;1.47;;;1.30;;
8293;SDS011;4185;41.506;24.938;2023-09-12T02:43:37;2.30;;;1.30;;
8293;SDS011;4185;41.506;24.938;2023-09-12T02:46:04;1.60;;;1.50;;
8293;SDS011;4185;41.506;24.938;2023-09-12T02:48:30;1.60;;;1.50;;
8293;SDS011;4185;41.506;24.938;2023-09-12T02:50:57;2.17;;;1.47;;
8293;SDS011;4185;41.506;24.938;2023-09-12T02:53:26;1.70;;;1.60;;
8293;SDS011;4185;41.506;24.938;2023-09-12T02:55:52;3.50;;;1.40;;
8293;SDS011;4185;41.506;24.938;2023-09-12T02:58:20;1.33;;;1.23;;
8293;SDS011;4185;41.506;24.938;2023-09-12T03:00:46;1.30;;;1.20;;
8293;SDS011;4185;41.506;24.938;2023-09-12T03:03:15;2.43;;;1.67;;
8293;SDS011;4185;41.506;24.938;2023-09-12T03:05:42;3.60;;;1.53;;
8293;SDS011;4185;41.506;24.938;2023-09-12T03:08:09;1.40;;;1.30;;
8293;SDS011;4185;41.506;24.938;2023-09-12T03:10:37;1.57;;;1.47;;
8293;SDS011;4185;41.506;24.938;2023-09-12T03:13:03;1.77;;;1.67;;
8293;SDS011;4185;41.506;24.938;2023-09-12T03:15:35;1.80;;;1.70;;
8293;SDS011;4185;41.506;24.938;2023-09-12T03:18:02;4.53;;;1.67;;
8293;SDS011;4185;41.506;24.938;2023-09-12T03:20:29;1.63;;;1.53;;
8293;SDS011;4185;41.506;24.938;2023-09-12T03:22:56;1.90;;;1.70;;
8293;SDS011;4185;41.506;24.938;2023-09-12T03:25:23;3.57;;;1.80;;
8293;SDS011;4185;41.506;24.938;2023-09-12T03:27:51;1.40;;;1.30;;
8293;SDS011;4185;41.506;24.938;2023-09-12T03:30:19;1.97;;;1.70;;
8293;SDS011;4185;41.506;24.938;2023-09-12T03:32:46;2.70;;;1.37;;
8293;SDS011;4185;41.506;24.938;2023-09-12T03:35:13;1.57;;;1.37;;
8293;SDS011;4185;41.506;24.938;2023-09-12T03:37:40;1.93;;;1.53;;
8293;SDS011;4185;41.506;24.938;2023-09-12T03:40:08;5.07;;;1.57;;
8293;SDS011;4185;41.506;24.938;2023-09-12T03:42:36;1.87;;;1.70;;
8293;SDS011;4185;41.506;24.938;2023-09-12T03:45:05;1.70;;;1.60;;
8293;SDS011;4185;41.506;24.938;2023-09-12T03:47:33;1.70;;;1.60;;
8293;SDS011;4185;41.506;24.938;2023-09-12T03:50:00;1.93;;;1.77;;
8293;SDS011;4185;41.506;24.938;2023-09-12T03:52:27;2.93;;;1.50;;
8293;SDS011;4185;41.506;24.938;2023-09-12T03:54:54;1.63;;;1.50;;
8293;SDS011;4185;41.506;24.938;2023-09-12T03:57:20;1.97;;;1.80;;
8293;SDS011;4185;41.506;24.938;2023-09-12T03:59:47;4.00;;;1.80;;
8293;SDS011;4185;41.506;24.938;2023-09-12T04:02:17;1.50;;;1.40;;
8293;SDS011;4185;41.506;24.938;2023-09-12T04:04:44;2.40;;;1.77;;
8293;SDS011;4185;41.506;24.938;2023-09-12T04:07:11;3.57;;;1.60;;
8293;SDS011;4185;41.506;24.938;2023-09-12T04:09:38;1.80;;;1.70;;
8293;SDS011;4185;41.506;24.938;2023-09-12T04:12:05;2.13;;;1.93;;
8293;SDS011;4185;41.506;24.938;2023-09-12T04:14:34;2.27;;;2.00;;
8293;SDS011;4185;41.506;24.938;2023-09-12T04:17:01;2.17;;;1.97;;
8293;SDS011;4185;41.506;24.938;2023-09-12T04:19:29;1.80;;;1.57;;
8293;SDS011;4185;41.506;24.938;2023-09-12T04:21:56;2.17;;;1.47;;
8293;SDS011;4185;41.506;24.938;2023-09-12T04:24:24;1.67;;;1.57;;
8293;SDS011;4185;41.506;24.938;2023-09-12T04:26:51;2.77;;;1.60;;
8293;SDS011;4185;41.506;24.938;2023-09-12T04:29:18;1.60;;;1.50;;
8293;SDS011;4185;41.506;24.938;2023-09-12T04:31:45;1.63;;;1.53;;
8293;SDS011;4185;41.506;24.938;2023-09-12T04:34:12;2.23;;;1.70;;
8293;SDS011;4185;41.506;24.938;2023-09-12T04:36:40;1.77;;;1.67;;
8293;SDS011;4185;41.506;24.938;2023-09-12T04:39:06;2.00;;;1.77;;
8293;SDS011;4185;41.506;24.938;2023-09-12T04:41:34;1.80;;;1.70;;
8293;SDS011;4185;41.506;24.938;2023-09-12T04:44:00;2.20;;;1.70;;
8293;SDS011;4185;41.506;24.938;2023-09-12T04:46:27;1.67;;;1.50;;
8293;SDS011;4185;41.506;24.938;2023-09-12T04:48:54;1.60;;;1.50;;
8293;SDS011;4185;41.506;24.938;2023-09-12T04:51:21;1.70;;;1.60;;
8293;SDS011;4185;41.506;24.938;2023-09-12T04:53:49;3.17;;;2.00;;
8293;SDS011;4185;41.506;24.938;2023-09-12T04:56:16;3.07;;;2.10;;
8293;SDS011;4185;41.506;24.938;2023-09-12T04:58:43;3.60;;;1.60;;
8293;SDS011;4185;41.506;24.938;2023-09-12T05:01:10;1.70;;;1.53;;
8293;SDS011;4185;41.506;24.938;2023-09-12T05:03:37;1.60;;;1.50;;
8293;SDS011;4185;41.506;24.938;2023-09-12T05:06:04;2.00;;;1.80;;
8293;SDS011;4185;41.506;24.938;2023-09-12T05:08:31;1.73;;;1.50;;
8293;SDS011;4185;41.506;24.938;2023-09-12T05:10:59;1.60;;;1.50;;
8293;SDS011;4185;41.506;24.938;2023-09-12T05:13:27;1.70;;;1.60;;
8293;SDS011;4185;41.506;24.938;2023-09-12T05:15:54;3.87;;;2.90;;
8293;SDS011;4185;41.506;24.938;2023-09-12T05:18:22;2.43;;;1.90;;
8293;SDS011;4185;41.506;24.938;2023-09-12T05:20:48;2.03;;;1.83;;
8293;SDS011;4185;41.506;24.938;2023-09-12T05:23:15;2.00;;;1.80;;
8293;SDS011;4185;41.506;24.938;2023-09-12T05:25:42;2.27;;;1.90;;
8293;SDS011;4185;41.506;24.938;2023-09-12T05:28:10;2.07;;;1.50;;
8293;SDS011;4185;41.506;24.938;2023-09-12T05:30:41;3.57;;;1.70;;
8293;SDS011;4185;41.506;24.938;2023-09-12T05:33:07;1.97;;;1.80;;
8293;SDS011;4185;41.506;24.938;2023-09-12T05:35:34;1.40;;;1.30;;
8293;SDS011;4185;41.506;24.938;2023-09-12T05:38:02;2.50;;;1.53;;
8293;SDS011;4185;41.506;24.938;2023-09-12T05:40:29;1.60;;;1.50;;
8293;SDS011;4185;41.506;24.938;2023-09-12T05:42:55;2.67;;;1.60;;
8293;SDS011;4185;41.506;24.938;2023-09-12T05:45:23;2.07;;;1.63;;
8293;SDS011;4185;41.506;24.938;2023-09-12T05:47:50;2.57;;;1.83;;
8293;SDS011;4185;41.506;24.938;2023-09-12T05:50:17;1.77;;;1.67;;
8293;SDS011;4185;41.506;24.938;2023-09-12T05:52:44;2.93;;;1.70;;
8293;SDS011;4185;41.506;24.938;2023-09-12T05:55:11;4.00;;;2.13;;
8293;SDS011;4185;41.506;24.938;2023-09-12T05:57:37;3.63;;;1.97;;
8293;SDS011;4185;41.506;24.938;2023-09-12T06:00:05;2.90;;;1.97;;
8293;SDS011;4185;41.506;24.938;2023-09-12T06:02:36;1.97;;;1.80;;
8293;SDS011;4185;41.506;24.938;2023-09-12T06:05:04;1.97;;;1.80;;
8293;SDS011;4185;41.506;24.938;2023-09-12T06:07:31;2.70;;;2.10;;
8293;SDS011;4185;41.506;24.938;2023-09-12T06:09:58;2.10;;;1.60;;
8293;SDS011;4185;41.506;24.938;2023-09-12T06:12:25;3.43;;;2.07;;
8293;SDS011;4185;41.506;24.938;2023-09-12T06:14:52;2.13;;;1.93;;
8293;SDS011;4185;41.506;24.938;2023-09-12T06:17:20;2.13;;;2.03;;
8293;SDS011;4185;41.506;24.938;2023-09-12T06:19:48;2.33;;;1.80;;
8293;SDS011;4185;41.506;24.938;2023-09-12T06:22:16;1.93;;;1.70;;
8293;SDS011;4185;41.506;24.938;2023-09-12T06:24:43;1.83;;;1.73;;
8293;SDS011;4185;41.506;24.938;2023-09-12T06:27:10;4.77;;;1.90;;
8293;SDS011;4185;41.506;24.938;2023-09-12T06:29:43;3.90;;;2.10;;
8293;SDS011;4185;41.506;24.938;2023-09-12T06:32:10;1.50;;;1.40;;
8293;SDS011;4185;41.506;24.938;2023-09-12T06:34:37;1.80;;;1.70;;
8293;SDS011;4185;41.506;24.938;2023-09-12T06:37:05;2.57;;;1.93;;
8293;SDS011;4185;41.506;24.938;2023-09-12T06:39:32;2.23;;;1.67;;
8293;SDS011;4185;41.506;24.938;2023-09-12T06:41:58;1.97;;;1.83;;
8293;SDS011;4185;41.506;24.938;2023-09-12T06:44:25;2.83;;;1.60;;
8293;SDS011;4185;41.506;24.938;2023-09-12T06:46:52;3.87;;;1.80;;
8293;SDS011;4185;41.506;24.938;2023-09-12T06:49:19;2.63;;;1.60;;
8293;SDS011;4185;41.506;24.938;2023-09-12T06:51:46;2.53;;;1.50;;
8293;SDS011;4185;41.506;24.938;2023-09-12T06:54:14;2.83;;;1.60;;
8293;SDS011;4185;41.506;24.938;2023-09-12T06:56:41;2.07;;;1.80;;
8293;SDS011;4185;41.506;24.938;2023-09-12T06:59:08;2.23;;;1.60;;
8293;SDS011;4185;41.506;24.938;2023-09-12T07:01:34;3.50;;;1.80;;
8293;SDS011;4185;41.506;24.938;2023-09-12T07:04:02;1.70;;;1.60;;
8293;SDS011;4185;41.506;24.938;2023-09-12T07:06:29;1.90;;;1.63;;
8293;SDS011;4185;41.506;24.938;2023-09-12T07:08:57;2.07;;;1.73;;
8293;SDS011;4185;41.506;24.938;2023-09-12T07:11:25;3.03;;;1.60;;
8293;SDS011;4185;41.506;24.938;2023-09-12T07:13:52;2.23;;;1.60;;
8293;SDS011;4185;41.506;24.938;2023-09-12T07:16:19;3.30;;;1.73;;
8293;SDS011;4185;41.506;24.938;2023-09-12T07:18:47;1.40;;;1.30;;
8293;SDS011;4185;41.506;24.938;2023-09-12T07:21:14;1.67;;;1.30;;
8293;SDS011;4185;41.506;24.938;2023-09-12T07:23:41;2.60;;;1.40;;
8293;SDS011;4185;41.506;24.938;2023-09-12T07:26:11;1.83;;;1.43;;
8293;SDS011;4185;41.506;24.938;2023-09-12T07:28:40;2.33;;;1.43;;
8293;SDS011;4185;41.506;24.938;2023-09-12T07:31:07;1.40;;;1.30;;
8293;SDS011;4185;41.506;24.938;2023-09-12T07:33:34;3.50;;;1.47;;
8293;SDS011;4185;41.506;24.938;2023-09-12T07:36:00;3.10;;;1.40;;
8293;SDS011;4185;41.506;24.938;2023-09-12T07:38:28;2.60;;;1.43;;
8293;SDS011;4185;41.506;24.938;2023-09-12T07:40:56;1.60;;;1.20;;
8293;SDS011;4185;41.506;24.938;2023-09-12T07:43:23;4.30;;;1.50;;
8293;SDS011;4185;41.506;24.938;2023-09-12T07:45:55;2.40;;;1.70;;
8293;SDS011;4185;41.506;24.938;2023-09-12T07:48:22;2.10;;;1.53;;
8293;SDS011;4185;41.506;24.938;2023-09-12T07:50:49;1.80;;;1.40;;
8293;SDS011;4185;41.506;24.938;2023-09-12T07:53:16;2.73;;;1.80;;
8293;SDS011;4185;41.506;24.938;2023-09-12T07:55:43;4.33;;;1.60;;
8293;SDS011;4185;41.506;24.938;2023-09-12T07:58:12;2.97;;;1.23;;
8293;SDS011;4185;41.506;24.938;2023-09-12T08:00:39;2.73;;;1.57;;
8293;SDS011;4185;41.506;24.938;2023-09-12T08:03:08;2.40;;;1.60;;
8293;SDS011;4185;41.506;24.938;2023-09-12T08:05:34;1.70;;;1.60;;
8293;SDS011;4185;41.506;24.938;2023-09-12T08:08:01;4.03;;;1.83;;
8293;SDS011;4185;41.506;24.938;2023-09-12T08:10:29;2.50;;;1.93;;
8293;SDS011;4185;41.506;24.938;2023-09-12T08:12:55;4.43;;;1.77;;
8293;SDS011;4185;41.506;24.938;2023-09-12T08:15:22;2.97;;;1.90;;
8293;SDS011;4185;41.506;24.938;2023-09-12T08:17:49;3.33;;;2.10;;
8293;SDS011;4185;41.506;24.938;2023-09-12T08:20:20;2.87;;;2.27;;
8293;SDS011;4185;41.506;24.938;2023-09-12T08:22:46;4.20;;;2.60;;
8293;SDS011;4185;41.506;24.938;2023-09-12T08:25:13;10.00;;;3.53;;
8293;SDS011;4185;41.506;24.938;2023-09-12T08:27:40;4.60;;;2.80;;
8293;SDS011;4185;41.506;24.938;2023-09-12T08:30:09;5.30;;;4.10;;
8293;SDS011;4185;41.506;24.938;2023-09-12T08:32:37;5.77;;;3.50;;
8293;SDS011;4185;41.506;24.938;2023-09-12T08:35:08;5.13;;;3.47;;
8293;SDS011;4185;41.506;24.938;2023-09-12T08:37:38;4.67;;;3.43;;
8293;SDS011;4185;41.506;24.938;2023-09-12T08:40:06;3.97;;;2.67;;
8293;SDS011;4185;41.506;24.938;2023-09-12T08:42:37;4.63;;;3.60;;
8293;SDS011;4185;41.506;24.938;2023-09-12T08:45:11;3.80;;;2.83;;
8293;SDS011;4185;41.506;24.938;2023-09-12T08:47:39;4.47;;;2.80;;
8293;SDS011;4185;41.506;24.938;2023-09-12T08:50:08;8.33;;;3.03;;
8293;SDS011;4185;41.506;24.938;2023-09-12T08:52:36;3.03;;;2.73;;
8293;SDS011;4185;41.506;24.938;2023-09-12T08:55:05;6.90;;;3.27;;
8293;SDS011;4185;41.506;24.938;2023-09-12T08:57:32;5.33;;;3.20;;
8293;SDS011;4185;41.506;24.938;2023-09-12T09:00:02;6.50;;;3.43;;
8293;SDS011;4185;41.506;24.938;2023-09-12T09:02:31;4.00;;;3.00;;
8293;SDS011;4185;41.506;24.938;2023-09-12T09:04:58;3.83;;;2.93;;
8293;SDS011;4185;41.506;24.938;2023-09-12T09:07:27;4.60;;;3.00;;
8293;SDS011;4185;41.506;24.938;2023-09-12T09:09:55;3.83;;;2.93;;
8293;SDS011;4185;41.506;24.938;2023-09-12T09:12:28;4.83;;;2.70;;
8293;SDS011;4185;41.506;24.938;2023-09-12T09:14:54;4.30;;;2.80;;
8293;SDS011;4185;41.506;24.938;2023-09-12T09:17:21;4.27;;;3.07;;
8293;SDS011;4185;41.506;24.938;2023-09-12T09:19:49;4.77;;;2.97;;
8293;SDS011;4185;41.506;24.938;2023-09-12T09:22:16;6.03;;;3.30;;
8293;SDS011;4185;41.506;24.938;2023-09-12T09:24:42;5.00;;;2.80;;
8293;SDS011;4185;41.506;24.938;2023-09-12T09:27:10;3.97;;;2.87;;
8293;SDS011;4185;41.506;24.938;2023-09-12T09:29:47;3.00;;;2.60;;
8293;SDS011;4185;41.506;24.938;2023-09-12T09:32:17;3.97;;;3.10;;
8293;SDS011;4185;41.506;24.938;2023-09-12T09:34:46;3.53;;;2.80;;
8293;SDS011;4185;41.506;24.938;2023-09-12T09:37:13;5.80;;;3.27;;
8293;SDS011;4185;41.506;24.938;2023-09-12T09:39:40;6.33;;;3.93;;
8293;SDS011;4185;41.506;24.938;2023-09-12T09:42:09;4.63;;;3.10;;
8293;SDS011;4185;41.506;24.938;2023-09-12T09:44:37;5.30;;;2.77;;
8293;SDS011;4185;41.506;24.938;2023-09-12T09:47:05;4.10;;;2.80;;
8293;SDS011;4185;41.506;24.938;2023-09-12T09:49:34;3.37;;;2.33;;
8293;SDS011;4185;41.506;24.938;2023-09-12T09:52:03;3.83;;;2.73;;
8293;SDS011;4185;41.506;24.938;2023-09-12T09:54:30;4.90;;;2.93;;
8293;SDS011;4185;41.506;24.938;2023-09-12T09:56:57;3.07;;;2.47;;
8293;SDS011;4185;41.506;24.938;2023-09-12T09:59:25;4.80;;;2.90;;
8293;SDS011;4185;41.506;24.938;2023-09-12T10:01:54;4.10;;;2.60;;
8293;SDS011;4185;41.506;24.938;2023-09-12T10:04:25;4.00;;;2.60;;
8293;SDS011;4185;41.506;24.938;2023-09-12T10:06:54;4.07;;;2.60;;
8293;SDS011;4185;41.506;24.938;2023-09-12T10:09:22;4.30;;;2.93;;
8293;SDS011;4185;41.506;24.938;2023-09-12T10:11:51;5.07;;;2.70;;
8293;SDS011;4185;41.506;24.938;2023-09-12T10:14:20;7.63;;;2.97;;
8293;SDS011;4185;41.506;24.938;2023-09-12T10:16:50;4.20;;;2.63;;
8293;SDS011;4185;41.506;24.938;2023-09-12T10:19:19;3.27;;;2.53;;
8293;SDS011;4185;41.506;24.938;2023-09-12T10:21:50;4.10;;;2.77;;
8293;SDS011;4185;41.506;24.938;2023-09-12T10:24:27;5.93;;;3.13;;
8293;SDS011;4185;41.506;24.938;2023-09-12T10:26:55;3.83;;;2.60;;
8293;SDS011;4185;41.506;24.938;2023-09-12T10:29:23;5.93;;;2.57;;
8293;SDS011;4185;41.506;24.938;2023-09-12T10:31:50;2.93;;;2.63;;
8293;SDS011;4185;41.506;24.938;2023-09-12T10:34:17;5.07;;;2.90;;
8293;SDS011;4185;41.506;24.938;2023-09-12T10:36:46;4.50;;;2.30;;
8293;SDS011;4185;41.506;24.938;2023-09-12T10:39:15;4.73;;;2.73;;
8293;SDS011;4185;41.506;24.938;2023-09-12T10:41:42;4.60;;;2.80;;
8293;SDS011;4185;41.506;24.938;2023-09-12T10:44:09;6.10;;;3.50;;
8293;SDS011;4185;41.506;24.938;2023-09-12T10:46:38;4.67;;;3.17;;
8293;SDS011;4185;41.506;24.938;2023-09-12T10:49:06;8.90;;;2.70;;
8293;SDS011;4185;41.506;24.938;2023-09-12T10:51:34;3.60;;;2.93;;
8293;SDS011;4185;41.506;24.938;2023-09-12T10:54:05;6.13;;;2.67;;
8293;SDS011;4185;41.506;24.938;2023-09-12T10:56:34;5.43;;;3.00;;
8293;SDS011;4185;41.506;24.938;2023-09-12T10:59:11;4.20;;;2.70;;
8293;SDS011;4185;41.506;24.938;2023-09-12T11:01:40;4.13;;;2.90;;
8293;SDS011;4185;41.506;24.938;2023-09-12T11:06:59;3.30;;;2.67;;
8293;SDS011;4185;41.506;24.938;2023-09-12T11:09:27;7.47;;;2.90;;
8293;SDS011;4185;41.506;24.938;2023-09-12T11:11:58;3.27;;;2.60;;
8293;SDS011;4185;41.506;24.938;2023-09-12T11:14:28;4.53;;;2.57;;
8293;SDS011;4185;41.506;24.938;2023-09-12T11:19:48;3.40;;;2.70;;
8293;SDS011;4185;41.506;24.938;2023-09-12T11:22:21;3.30;;;2.70;;
8293;SDS011;4185;41.506;24.938;2023-09-12T11:24:50;3.50;;;2.50;;
8293;SDS011;4185;41.506;24.938;2023-09-12T11:27:18;3.00;;;2.37;;
8293;SDS011;4185;41.506;24.938;2023-09-12T11:29:45;3.40;;;2.63;;
8293;SDS011;4185;41.506;24.938;2023-09-12T11:32:24;3.13;;;2.60;;
8293;SDS011;4185;41.506;24.938;2023-09-12T11:34:52;4.10;;;2.63;;
8293;SDS011;4185;41.506;24.938;2023-09-12T11:37:22;4.50;;;2.85;;
8293;SDS011;4185;41.506;24.938;2023-09-12T11:39:51;4.63;;;2.75;;
8293;SDS011;4185;41.506;24.938;2023-09-12T11:42:21;3.88;;;2.50;;
8293;SDS011;4185;41.506;24.938;2023-09-12T11:44:50;6.07;;;2.65;;
8293;SDS011;4185;41.506;24.938;2023-09-12T11:47:18;3.15;;;2.58;;
8293;SDS011;4185;41.506;24.938;2023-09-12T11:49:45;2.80;;;2.28;;
8293;SDS011;4185;41.506;24.938;2023-09-12T11:52:12;2.67;;;2.47;;
8293;SDS011;4185;41.506;24.938;2023-09-12T11:54:41;4.32;;;2.80;;
8293;SDS011;4185;41.506;24.938;2023-09-12T11:57:09;2.90;;;2.60;;
8293;SDS011;4185;41.506;24.938;2023-09-12T11:59:40;3.25;;;2.80;;
8293;SDS011;4185;41.506;24.938;2023-09-12T12:02:09;3.13;;;2.25;;
8293;SDS011;4185;41.506;24.938;2023-09-12T12:04:36;3.08;;;2.75;;
8293;SDS011;4185;41.506;24.938;2023-09-12T12:07:04;3.55;;;2.60;;
8293;SDS011;4185;41.506;24.938;2023-09-12T12:09:31;3.85;;;2.60;;
8293;SDS011;4185;41.506;24.938;2023-09-12T12:12:03;3.53;;;2.47;;
8293;SDS011;4185;41.506;24.938;2023-09-12T12:14:41;4.30;;;2.20;;
8293;SDS011;4185;41.506;24.938;2023-09-12T12:17:10;3.75;;;2.60;;
8293;SDS011;4185;41.506;24.938;2023-09-12T12:19:38;6.43;;;2.70;;
8293;SDS011;4185;41.506;24.938;2023-09-12T12:22:05;4.60;;;2.60;;
8293;SDS011;4185;41.506;24.938;2023-09-12T12:24:39;2.85;;;2.55;;
8293;SDS011;4185;41.506;24.938;2023-09-12T12:27:06;3.95;;;2.50;;
8293;SDS011;4185;41.506;24.938;2023-09-12T12:29:35;4.50;;;2.40;;
8293;SDS011;4185;41.506;24.938;2023-09-12T12:32:06;3.47;;;2.38;;
8293;SDS011;4185;41.506;24.938;2023-09-12T12:34:34;3.20;;;2.40;;
8293;SDS011;4185;41.506;24.938;2023-09-12T12:37:02;3.88;;;2.70;;
8293;SDS011;4185;41.506;24.938;2023-09-12T12:39:29;2.75;;;2.28;;
8293;SDS011;4185;41.506;24.938;2023-09-12T12:41:56;3.10;;;2.17;;
8293;SDS011;4185;41.506;24.938;2023-09-12T12:44:31;4.18;;;2.70;;
8293;SDS011;4185;41.506;24.938;2023-09-12T12:47:03;5.30;;;2.33;;
8293;SDS011;4185;41.506;24.938;2023-09-12T12:49:35;3.88;;;2.47;;
8293;SDS011;4185;41.506;24.938;2023-09-12T12:52:02;3.17;;;2.47;;
8293;SDS011;4185;41.506;24.938;2023-09-12T12:54:30;5.15;;;2.40;;
8293;SDS011;4185;41.506;24.938;2023-09-12T12:56:58;3.30;;;2.08;;
8293;SDS011;4185;41.506;24.938;2023-09-12T12:59:24;6.88;;;2.50;;
8293;SDS011;4185;41.506;24.938;2023-09-12T13:01:51;3.70;;;2.60;;
8293;SDS011;4185;41.506;24.938;2023-09-12T13:04:18;3.13;;;2.15;;
8293;SDS011;4185;41.506;24.938;2023-09-12T13:06:46;3.72;;;2.40;;
8293;SDS011;4185;41.506;24.938;2023-09-12T13:09:13;4.47;;;3.05;;
8293;SDS011;4185;41.506;24.938;2023-09-12T13:11:41;3.17;;;2.50;;
8293;SDS011;4185;41.506;24.938;2023-09-12T13:14:08;3.63;;;2.10;;
8293;SDS011;4185;41.506;24.938;2023-09-12T13:16:36;3.00;;;2.40;;
8293;SDS011;4185;41.506;24.938;2023-09-12T13:19:04;3.10;;;2.30;;
8293;SDS011;4185;41.506;24.938;2023-09-12T13:21:31;3.78;;;2.22;;
8293;SDS011;4185;41.506;24.938;2023-09-12T13:23:59;3.80;;;2.67;;
8293;SDS011;4185;41.506;24.938;2023-09-12T13:26:26;6.47;;;2.67;;
8293;SDS011;4185;41.506;24.938;2023-09-12T13:28:53;3.33;;;2.70;;
8293;SDS011;4185;41.506;24.938;2023-09-12T13:31:20;3.08;;;2.10;;
8293;SDS011;4185;41.506;24.938;2023-09-12T13:33:47;4.72;;;2.53;;
8293;SDS011;4185;41.506;24.938;2023-09-12T13:36:14;3.90;;;2.38;;
8293;SDS011;4185;41.506;24.938;2023-09-12T13:38:40;4.53;;;2.28;;
8293;SDS011;4185;41.506;24.938;2023-09-12T13:41:08;6.53;;;2.53;;
8293;SDS011;4185;41.506;24.938;2023-09-12T13:43:35;4.35;;;2.55;;
8293;SDS011;4185;41.506;24.938;2023-09-12T13:46:02;2.92;;;2.40;;
8293;SDS011;4185;41.506;24.938;2023-09-12T13:48:29;3.17;;;2.40;;
8293;SDS011;4185;41.506;24.938;2023-09-12T13:50:55;4.80;;;2.80;;
8293;SDS011;4185;41.506;24.938;2023-09-12T13:53:22;4.55;;;2.53;;
8293;SDS011;4185;41.506;24.938;2023-09-12T13:55:49;2.78;;;2.50;;
8293;SDS011;4185;41.506;24.938;2023-09-12T13:58:17;4.68;;;2.80;;
8293;SDS011;4185;41.506;24.938;2023-09-12T14:00:44;3.50;;;2.58;;
8293;SDS011;4185;41.506;24.938;2023-09-12T14:03:10;9.40;;;5.05;;
8293;SDS011;4185;41.506;24.938;2023-09-12T14:05:37;4.35;;;2.65;;
8293;SDS011;4185;41.506;24.938;2023-09-12T14:08:04;3.47;;;3.00;;
8293;SDS011;4185;41.506;24.938;2023-09-12T14:10:31;4.13;;;2.50;;
8293;SDS011;4185;41.506;24.938;2023-09-12T14:12:58;4.05;;;3.00;;
8293;SDS011;4185;41.506;24.938;2023-09-12T14:15:26;5.15;;;2.80;;
8293;SDS011;4185;41.506;24.938;2023-09-12T14:17:53;5.20;;;2.67;;
8293;SDS011;4185;41.506;24.938;2023-09-12T14:20:19;3.65;;;2.70;;
8293;SDS011;4185;41.506;24.938;2023-09-12T14:22:46;6.22;;;2.25;;
8293;SDS011;4185;41.506;24.938;2023-09-12T14:25:13;3.00;;;2.20;;
8293;SDS011;4185;41.506;24.938;2023-09-12T14:27:41;3.92;;;2.70;;
8293;SDS011;4185;41.506;24.938;2023-09-12T14:30:08;8.25;;;2.90;;
8293;SDS011;4185;41.506;24.938;2023-09-12T14:32:38;2.67;;;2.47;;
8293;SDS011;4185;41.506;24.938;2023-09-12T14:35:05;5.15;;;2.55;;
8293;SDS011;4185;41.506;24.938;2023-09-12T14:37:32;3.15;;;2.42;;
8293;SDS011;4185;41.506;24.938;2023-09-12T14:40:00;5.55;;;2.72;;
8293;SDS011;4185;41.506;24.938;2023-09-12T14:42:29;3.50;;;2.70;;
8293;SDS011;4185;41.506;24.938;2023-09-12T14:44:56;5.03;;;2.35;;
8293;SDS011;4185;41.506;24.938;2023-09-12T14:47:23;4.10;;;2.50;;
8293;SDS011;4185;41.506;24.938;2023-09-12T14:49:54;5.55;;;3.00;;
8293;SDS011;4185;41.506;24.938;2023-09-12T14:52:20;4.05;;;2.58;;
8293;SDS011;4185;41.506;24.938;2023-09-12T14:54:47;4.55;;;2.63;;
8293;SDS011;4185;41.506;24.938;2023-09-12T14:57:14;5.35;;;2.40;;
8293;SDS011;4185;41.506;24.938;2023-09-12T14:59:41;4.97;;;2.72;;
8293;SDS011;4185;41.506;24.938;2023-09-12T15:02:07;6.22;;;2.55;;
8293;SDS011;4185;41.506;24.938;2023-09-12T15:04:34;2.97;;;2.30;;
8293;SDS011;4185;41.506;24.938;2023-09-12T15:07:02;3.30;;;2.40;;
8293;SDS011;4185;41.506;24.938;2023-09-12T15:09:29;3.38;;;2.35;;